Logo

Informe meteorológico de datos medios para el día en curso

  • Compartir en Google Plus
  • Compartir en Twitter
  • Compartir en Facebook
Nº de accesos al conjunto de datos: 162

Previsualización

API de datos Código HTML

_id codest paraje municipio dia hora tmin tmax tmed hrmin hrmax hrmed prec radmax radmed vvmed vvmax
1 AL31 Lebor Totana 2020-04-01T00:00:00 22:00 9.6 19.0 13.7 43.7 97.1 83.5 6.0 1250.0 219.4 1.2 6.0
2 AL52 Los Palomos Librilla 2020-04-01T00:00:00 22:00 10.5 20.1 14.3 46.1 98.7 83.5 9.6 1207.0 197.3 1.0 4.9
3 AL62 Cañada Gallego Mazarrón 2020-04-01T00:00:00 03:00 12.9 14.1 13.7 88.4 89.1 88.7 0.0 0.0 0.0 0.3 1.9
4 AL91 Leiva Mazarrón 2020-04-01T00:00:00 23:00 11.0 18.9 14.8 53.8 94.4 80.6 5.9 1316.0 220.0 1.3 6.4
5 CA12 La Palma Cartagena 2020-04-01T00:00:00 03:00 12.1 13.8 12.9 89.7 91.2 90.3 0.0 0.0 0.0 0.1 2.0
6 CA21 Corvera Murcia 2020-04-01T00:00:00 22:00 10.3 19.4 14.2 60.2 99.9 82.9 8.6 1210.0 195.6 1.8 11.2
7 CA42 Balsapintada Fuente Alamo 2020-04-01T00:00:00 22:00 10.2 20.4 14.7 55.0 99.9 87.6 2.7 1257.0 236.7 1.0 5.3
8 CA52 La Aljorra Cartagena 2020-04-01T00:00:00 22:00 11.5 20.1 15.0 59.2 99.9 82.1 0.1 1233.0 245.0 1.9 8.7
9 CA73 Los Belones Cartagena 2020-04-01T00:00:00 23:00 11.8 18.4 15.4 64.8 95.6 82.3 0.2 1062.0 233.1 1.5 8.7
10 CA91 Campillo Abajo Fuente Alamo 2020-04-01T00:00:00 23:00 10.3 20.1 14.2 52.5 93.2 80.4 3.2 1196.0 238.6 0.9 5.9
11 CI22 Estación de Blanca Blanca 2020-04-01T00:00:00 22:00 9.8 21.7 14.1 30.0 88.5 70.8 22.8 1047.0 250.1 0.9 4.4
12 CI32 Estación Ulea Ulea 2020-04-01T00:00:00 22:00 9.8 21.4 14.5 38.0 99.9 79.6 22.8 1175.0 233.7 2.0 9.3
13 CI52 Rotas Calasparra 2020-04-01T00:00:00 23:00 8.2 20.0 13.3 39.1 92.0 73.9 13.7 1263.0 248.5 1.1 8.0
14 CI71 Llano de las olivericas Calasparra 2020-04-01T00:00:00 23:00 9.9 20.8 13.8 40.4 99.9 84.4 18.9 1115.0 230.6 1.0 7.1
15 CR32 El Chaparral Cehegin 2020-04-01T00:00:00 03:00 8.7 10.6 9.7 90.9 92.6 91.6 0.0 0.0 0.0 0.4 1.9
16 CR42 Venta Ulea Moratalla 2020-04-01T00:00:00 22:00 7.4 17.6 11.9 54.9 99.9 85.9 12.6 1283.0 216.2 1.2 7.0
17 CR52 La Torrecica Cehegin 2020-04-01T00:00:00 22:00 8.7 19.2 12.4 45.1 93.2 77.6 4.7 1176.0 235.2 0.7 5.5
18 JU12 Cañada del Judio Jumilla 2020-04-01T00:00:00 03:00 8.4 10.9 9.8 80.3 88.4 85.0 7.2 0.5 0.0 1.8 6.1
19 JU42 Las Moratillas Yecla 2020-04-01T00:00:00 22:00 4.7 15.9 9.9 50.0 99.9 84.7 26.0 1104.0 149.7 1.1 6.0
20 JU52 Pinillos Yecla 2020-04-01T00:00:00 03:00 6.9 8.1 7.7 91.2 93.4 92.5 5.1 1.3 0.0 0.9 5.1
21 JU62 Miraflores Jumilla 2020-04-01T00:00:00 23:00 5.0 18.4 11.3 40.8 98.5 78.1 13.9 1209.0 219.6 1.2 7.3
22 JU71 Las Encebras Jumilla 2020-04-01T00:00:00 16:00 7.1 19.7 13.1 33.7 91.4 69.6 3.5 1274.0 321.7 1.6 9.3
23 JU81 Roman Jumilla 2020-04-01T00:00:00 22:00 8.2 20.4 13.4 31.5 87.3 67.4 15.2 1147.0 193.8 0.8 7.3
24 LO11 Purias Lorca 2020-04-01T00:00:00 22:00 8.6 18.7 13.2 48.2 97.4 81.2 21.6 1296.0 199.6 1.3 5.9
25 LO21 Pozohiguera Lorca 2020-04-01T00:00:00 22:00 9.4 17.8 13.3 62.9 99.9 86.6 0.9 1181.0 198.5 2.1 10.6
26 LO31 La Pilica Aguilas 2020-04-01T00:00:00 22:00 12.7 19.4 16.0 56.5 95.9 76.1 0.4 1129.0 219.0 1.3 7.5
27 LO41 La Paca Lorca 2020-04-01T00:00:00 22:00 5.5 17.7 11.2 42.2 96.2 77.9 4.3 1280.0 229.4 1.5 5.4
28 LO51 Tebar Aguilas 2020-04-01T00:00:00 23:00 10.5 18.2 13.9 53.9 99.0 77.4 3.3 1167.0 211.7 1.7 11.7
29 LO61 El Esparragal Puerto Lumbreras 2020-04-01T00:00:00 22:00 8.7 19.5 13.2 42.0 93.2 77.0 15.6 1283.0 205.5 1.2 7.0
30 ML12 Yechar Mula 2020-04-01T00:00:00 03:00 11.9 13.4 12.9 90.5 91.6 91.1 0.0 None None 0.2 0.8
31 ML21 Mula Mula 2020-04-01T00:00:00 23:00 9.4 20.1 13.7 39.4 90.6 73.7 3.0 1144.0 211.3 1.4 7.2
32 MO12 Pilica Torres de Cotillas 2020-04-01T00:00:00 22:00 10.5 20.5 14.7 42.9 99.9 81.7 5.0 973.0 204.1 1.5 6.8
33 MO22 Campotejar Molina Segura 2020-04-01T00:00:00 23:00 10.6 22.2 15.0 29.0 92.9 71.7 6.1 1096.0 251.7 1.5 7.5
34 MO31 El Llano Molina Segura 2020-04-01T00:00:00 03:00 12.9 14.1 13.4 99.9 99.9 99.9 0.0 0.0 0.0 0.2 2.3
35 MO41 La Jaira Abanilla 2020-04-01T00:00:00 03:00 11.0 12.3 11.8 91.0 92.8 91.9 0.2 0.0 0.0 0.2 1.8
36 MO51 Charco Taray Fortuna 2020-04-01T00:00:00 22:00 10.8 21.8 15.2 38.5 99.3 78.7 5.1 1084.0 265.7 1.1 5.4
37 MO62 Loma del Aire Ojós 2020-04-01T00:00:00 23:00 11.4 22.3 15.8 38.6 99.9 78.8 11.3 1246.0 255.3 0.7 6.1
38 MU21 Los Alamos Beniel 2020-04-01T00:00:00 22:00 9.6 21.6 14.4 52.2 98.4 82.8 7.2 1036.0 229.5 1.0 4.8
39 MU31 La Vereda Murcia 2020-04-01T00:00:00 22:00 11.2 21.6 15.0 None 99.9 10.4 7.2 1097.0 188.9 0.8 4.9
40 MU52 Cabezo Plata Murcia 2020-04-01T00:00:00 22:00 11.2 19.8 14.9 53.7 99.9 84.5 4.9 1141.0 168.0 1.5 7.6
41 MU62 La Alberca Murcia 2020-04-01T00:00:00 23:00 10.9 20.9 15.0 37.7 89.2 75.5 2.8 1054.0 149.9 0.7 6.1
42 TP22 Santiago de la Ribera San Javier 2020-04-01T00:00:00 22:00 11.8 21.6 16.2 45.9 89.8 72.7 0.1 1048.0 264.5 1.3 6.4
43 TP42 Torre Blanca Torre Pacheco 2020-04-01T00:00:00 03:00 12.5 13.5 13.1 94.5 95.7 95.2 0.0 0.0 0.0 0.3 1.4
44 TP52 El Mirador San Javier 2020-04-01T00:00:00 22:00 11.2 20.4 15.4 48.3 96.2 77.1 4.0 1157.0 237.2 1.5 7.2
45 TP73 Los Infiernos Torre Pacheco 2020-04-01T00:00:00 03:00 11.9 12.9 12.4 94.6 95.9 95.3 0.0 0.0 0.0 0.6 2.4
46 TP91 Torre Pacheco Torre Pacheco 2020-04-01T00:00:00 03:00 12.1 13.0 12.6 99.9 99.9 99.9 0.2 0.0 0.0 0.3 1.3

Propiedades del conjunto de datos

Título
Informe meteorológico de datos medios para el día en curso
Descripción

Información sobre los datos meteorológicos del día en curso. Se incluye la información por cada una de las estaciones meteorológicas de la red SIAM gestionada por el Instituto Murciano de Investigación y Desarrollo Agrario y Alimentario (IMIDA). Los datos recogidos por las estaciones son validados al día siguiente de la toma de datos.

Categoría
Palabra clave / etiqueta
Publicador
Cobertura geográfica
Región de Murcia
Idioma
Español
Fecha de primera publicación
15/05/2018
Fecha de última modificación
02/04/2020
Licencia
Frecuencia de actualización
Horaria (cada hora)
Diccionario de datos
La información se estructura en las siguientes columnas: Código de estación meteorológica, Nombre del paraje donde está ubicada la estación, Municipio donde está ubicada la estación, día de toma de datos, hora de toma de datos, Temperatura mínima (ºC), Temperatura máxima (ºC), Temperatura media (ºC), Humedad Relativa mínima (%), Humedad Relativa máxima (%),Humedad Relativa media (%),Precipitación (mm), radiación máxima (w/m2), radiación media (w/m2), Velocidad del Viento media (m/seg), Velocidad del Viento máxima (m/seg), Evapotranspiración máxima de un día (mm).
comments powered by Disqus